sensor_id;sensor_type;location;lat;lon;timestamp;temperature;humidity
25983;DHT22;13773;48.868;10.730;2023-12-20T00:02:20;3.30;99.90
25983;DHT22;13773;48.868;10.730;2023-12-20T00:04:45;3.30;99.90
25983;DHT22;13773;48.868;10.730;2023-12-20T00:07:11;3.30;99.90
25983;DHT22;13773;48.868;10.730;2023-12-20T00:09:37;3.30;99.90
25983;DHT22;13773;48.868;10.730;2023-12-20T00:12:02;3.30;99.90
25983;DHT22;13773;48.868;10.730;2023-12-20T00:14:28;3.30;99.90
25983;DHT22;13773;48.868;10.730;2023-12-20T00:16:54;3.70;99.90
25983;DHT22;13773;48.868;10.730;2023-12-20T00:19:19;3.30;99.90
25983;DHT22;13773;48.868;10.730;2023-12-20T00:21:45;3.20;99.90
25983;DHT22;13773;48.868;10.730;2023-12-20T00:24:11;3.40;99.90
25983;DHT22;13773;48.868;10.730;2023-12-20T00:26:36;3.20;99.90
25983;DHT22;13773;48.868;10.730;2023-12-20T00:29:02;3.20;99.90
25983;DHT22;13773;48.868;10.730;2023-12-20T00:31:28;3.30;99.90
25983;DHT22;13773;48.868;10.730;2023-12-20T00:33:53;3.30;99.90
25983;DHT22;13773;48.868;10.730;2023-12-20T00:36:20;3.30;99.90
25983;DHT22;13773;48.868;10.730;2023-12-20T00:38:45;3.30;99.90
25983;DHT22;13773;48.868;10.730;2023-12-20T00:41:11;3.30;99.90
25983;DHT22;13773;48.868;10.730;2023-12-20T00:43:37;3.30;99.90
25983;DHT22;13773;48.868;10.730;2023-12-20T00:46:02;3.70;99.90
25983;DHT22;13773;48.868;10.730;2023-12-20T00:48:28;3.30;99.90
25983;DHT22;13773;48.868;10.730;2023-12-20T00:50:55;3.30;99.90
25983;DHT22;13773;48.868;10.730;2023-12-20T00:53:21;3.70;99.90
25983;DHT22;13773;48.868;10.730;2023-12-20T00:55:47;3.30;99.90
25983;DHT22;13773;48.868;10.730;2023-12-20T00:58:12;3.30;99.90
25983;DHT22;13773;48.868;10.730;2023-12-20T01:00:40;3.30;99.90
25983;DHT22;13773;48.868;10.730;2023-12-20T01:03:07;3.30;99.90
25983;DHT22;13773;48.868;10.730;2023-12-20T01:05:33;3.30;99.90
25983;DHT22;13773;48.868;10.730;2023-12-20T01:07:58;3.30;99.90
25983;DHT22;13773;48.868;10.730;2023-12-20T01:10:24;3.40;99.90
25983;DHT22;13773;48.868;10.730;2023-12-20T01:12:53;3.40;99.90
25983;DHT22;13773;48.868;10.730;2023-12-20T01:15:19;3.40;99.90
25983;DHT22;13773;48.868;10.730;2023-12-20T01:17:44;3.40;99.90
25983;DHT22;13773;48.868;10.730;2023-12-20T01:20:10;3.40;99.90
25983;DHT22;13773;48.868;10.730;2023-12-20T01:22:36;3.40;99.90
25983;DHT22;13773;48.868;10.730;2023-12-20T01:25:02;3.40;99.90
25983;DHT22;13773;48.868;10.730;2023-12-20T01:27:28;3.50;99.90
25983;DHT22;13773;48.868;10.730;2023-12-20T01:29:54;3.40;99.90
25983;DHT22;13773;48.868;10.730;2023-12-20T01:32:20;3.60;99.90
25983;DHT22;13773;48.868;10.730;2023-12-20T01:34:45;3.50;99.90
25983;DHT22;13773;48.868;10.730;2023-12-20T01:37:11;3.50;99.90
25983;DHT22;13773;48.868;10.730;2023-12-20T01:39:37;3.50;99.90
25983;DHT22;13773;48.868;10.730;2023-12-20T01:42:03;3.50;99.90
25983;DHT22;13773;48.868;10.730;2023-12-20T01:44:28;3.50;99.90
25983;DHT22;13773;48.868;10.730;2023-12-20T01:46:54;3.50;99.90
25983;DHT22;13773;48.868;10.730;2023-12-20T01:49:21;3.50;99.90
25983;DHT22;13773;48.868;10.730;2023-12-20T01:51:47;3.40;99.90
25983;DHT22;13773;48.868;10.730;2023-12-20T01:54:13;3.80;99.90
25983;DHT22;13773;48.868;10.730;2023-12-20T01:56:40;3.40;99.90
25983;DHT22;13773;48.868;10.730;2023-12-20T01:59:06;3.40;99.90
25983;DHT22;13773;48.868;10.730;2023-12-20T02:01:33;3.40;99.90
25983;DHT22;13773;48.868;10.730;2023-12-20T02:03:59;3.30;99.90
25983;DHT22;13773;48.868;10.730;2023-12-20T02:06:29;3.30;99.90
25983;DHT22;13773;48.868;10.730;2023-12-20T02:08:58;3.30;99.90
25983;DHT22;13773;48.868;10.730;2023-12-20T02:11:24;3.30;99.90
25983;DHT22;13773;48.868;10.730;2023-12-20T02:13:50;3.20;99.90
25983;DHT22;13773;48.868;10.730;2023-12-20T02:16:16;3.20;99.90
25983;DHT22;13773;48.868;10.730;2023-12-20T02:18:43;3.30;99.90
25983;DHT22;13773;48.868;10.730;2023-12-20T02:21:10;3.30;99.90
25983;DHT22;13773;48.868;10.730;2023-12-20T02:23:35;3.30;99.90
25983;DHT22;13773;48.868;10.730;2023-12-20T02:26:02;3.30;99.90
25983;DHT22;13773;48.868;10.730;2023-12-20T02:28:28;3.20;99.90
25983;DHT22;13773;48.868;10.730;2023-12-20T02:30:54;3.20;99.90
25983;DHT22;13773;48.868;10.730;2023-12-20T02:33:20;3.20;99.90
25983;DHT22;13773;48.868;10.730;2023-12-20T02:35:45;3.20;99.90
25983;DHT22;13773;48.868;10.730;2023-12-20T02:38:11;3.10;99.90
25983;DHT22;13773;48.868;10.730;2023-12-20T02:40:37;3.10;99.90
25983;DHT22;13773;48.868;10.730;2023-12-20T02:43:02;3.10;99.90
25983;DHT22;13773;48.868;10.730;2023-12-20T02:45:28;3.10;99.90
25983;DHT22;13773;48.868;10.730;2023-12-20T02:47:54;3.50;99.90
25983;DHT22;13773;48.868;10.730;2023-12-20T02:50:19;3.20;99.90
25983;DHT22;13773;48.868;10.730;2023-12-20T02:52:45;3.20;99.90
25983;DHT22;13773;48.868;10.730;2023-12-20T02:55:11;3.20;99.90
25983;DHT22;13773;48.868;10.730;2023-12-20T02:57:37;3.20;99.90
25983;DHT22;13773;48.868;10.730;2023-12-20T03:00:08;3.30;99.90
25983;DHT22;13773;48.868;10.730;2023-12-20T03:02:34;3.20;99.90
25983;DHT22;13773;48.868;10.730;2023-12-20T03:05:00;3.20;99.90
25983;DHT22;13773;48.868;10.730;2023-12-20T03:07:26;3.20;99.90
25983;DHT22;13773;48.868;10.730;2023-12-20T03:09:51;3.60;99.90
25983;DHT22;13773;48.868;10.730;2023-12-20T03:12:17;3.30;99.90
25983;DHT22;13773;48.868;10.730;2023-12-20T03:14:43;3.10;99.90
25983;DHT22;13773;48.868;10.730;2023-12-20T03:17:10;3.10;99.90
25983;DHT22;13773;48.868;10.730;2023-12-20T03:19:35;3.10;99.90
25983;DHT22;13773;48.868;10.730;2023-12-20T03:22:01;3.20;99.90
25983;DHT22;13773;48.868;10.730;2023-12-20T03:24:27;3.20;99.90
25983;DHT22;13773;48.868;10.730;2023-12-20T03:26:53;3.20;99.90
25983;DHT22;13773;48.868;10.730;2023-12-20T03:29:18;3.20;99.90
25983;DHT22;13773;48.868;10.730;2023-12-20T03:31:44;3.20;99.90
25983;DHT22;13773;48.868;10.730;2023-12-20T03:34:11;3.20;99.90
25983;DHT22;13773;48.868;10.730;2023-12-20T03:36:37;3.20;99.90
25983;DHT22;13773;48.868;10.730;2023-12-20T03:39:02;3.30;99.90
25983;DHT22;13773;48.868;10.730;2023-12-20T03:41:28;3.20;99.90
25983;DHT22;13773;48.868;10.730;2023-12-20T03:43:54;3.20;99.90
25983;DHT22;13773;48.868;10.730;2023-12-20T03:46:19;3.20;99.90
25983;DHT22;13773;48.868;10.730;2023-12-20T03:48:45;3.30;99.90
25983;DHT22;13773;48.868;10.730;2023-12-20T03:51:10;3.60;99.90
25983;DHT22;13773;48.868;10.730;2023-12-20T03:53:36;3.30;99.90
25983;DHT22;13773;48.868;10.730;2023-12-20T03:56:02;3.30;99.90
25983;DHT22;13773;48.868;10.730;2023-12-20T03:58:28;3.30;99.90
25983;DHT22;13773;48.868;10.730;2023-12-20T04:00:53;3.30;99.90
25983;DHT22;13773;48.868;10.730;2023-12-20T04:03:19;3.30;99.90
25983;DHT22;13773;48.868;10.730;2023-12-20T04:05:45;3.30;99.90
25983;DHT22;13773;48.868;10.730;2023-12-20T04:08:11;3.30;99.90
25983;DHT22;13773;48.868;10.730;2023-12-20T04:10:36;3.30;99.90
25983;DHT22;13773;48.868;10.730;2023-12-20T04:13:03;3.40;99.90
25983;DHT22;13773;48.868;10.730;2023-12-20T04:15:29;3.40;99.90
25983;DHT22;13773;48.868;10.730;2023-12-20T04:17:54;3.40;99.90
25983;DHT22;13773;48.868;10.730;2023-12-20T04:20:20;3.40;99.90
25983;DHT22;13773;48.868;10.730;2023-12-20T04:22:45;3.40;99.90
25983;DHT22;13773;48.868;10.730;2023-12-20T04:25:11;3.40;99.90
25983;DHT22;13773;48.868;10.730;2023-12-20T04:27:37;3.60;99.90
25983;DHT22;13773;48.868;10.730;2023-12-20T04:30:03;3.40;99.90
25983;DHT22;13773;48.868;10.730;2023-12-20T04:32:29;3.40;99.90
25983;DHT22;13773;48.868;10.730;2023-12-20T04:34:54;3.50;99.90
25983;DHT22;13773;48.868;10.730;2023-12-20T04:37:20;3.70;99.90
25983;DHT22;13773;48.868;10.730;2023-12-20T04:39:46;3.60;99.90
25983;DHT22;13773;48.868;10.730;2023-12-20T04:42:11;3.60;99.90
25983;DHT22;13773;48.868;10.730;2023-12-20T04:44:37;3.70;99.90
25983;DHT22;13773;48.868;10.730;2023-12-20T04:47:03;4.00;99.90
25983;DHT22;13773;48.868;10.730;2023-12-20T04:49:28;3.70;99.90
25983;DHT22;13773;48.868;10.730;2023-12-20T04:51:54;3.70;99.90
25983;DHT22;13773;48.868;10.730;2023-12-20T04:54:21;3.70;99.90
25983;DHT22;13773;48.868;10.730;2023-12-20T04:56:46;3.70;99.90
25983;DHT22;13773;48.868;10.730;2023-12-20T04:59:12;3.70;99.90
25983;DHT22;13773;48.868;10.730;2023-12-20T05:01:38;3.60;99.90
25983;DHT22;13773;48.868;10.730;2023-12-20T05:04:04;3.60;99.90
25983;DHT22;13773;48.868;10.730;2023-12-20T05:06:30;3.60;99.90
25983;DHT22;13773;48.868;10.730;2023-12-20T05:08:56;3.60;99.90
25983;DHT22;13773;48.868;10.730;2023-12-20T05:11:21;3.60;99.90
25983;DHT22;13773;48.868;10.730;2023-12-20T05:13:47;3.60;99.90
25983;DHT22;13773;48.868;10.730;2023-12-20T05:16:13;3.50;99.90
25983;DHT22;13773;48.868;10.730;2023-12-20T05:18:40;3.60;99.90
25983;DHT22;13773;48.868;10.730;2023-12-20T05:21:05;3.60;99.90
25983;DHT22;13773;48.868;10.730;2023-12-20T05:23:31;3.60;99.90
25983;DHT22;13773;48.868;10.730;2023-12-20T05:25:57;3.50;99.90
25983;DHT22;13773;48.868;10.730;2023-12-20T05:28:24;3.50;99.90
25983;DHT22;13773;48.868;10.730;2023-12-20T05:30:50;3.50;99.90
25983;DHT22;13773;48.868;10.730;2023-12-20T05:33:15;3.50;99.90
25983;DHT22;13773;48.868;10.730;2023-12-20T05:35:41;3.80;99.90
25983;DHT22;13773;48.868;10.730;2023-12-20T05:38:07;3.50;99.90
25983;DHT22;13773;48.868;10.730;2023-12-20T05:40:32;3.40;99.90
25983;DHT22;13773;48.868;10.730;2023-12-20T05:42:58;3.80;99.90
25983;DHT22;13773;48.868;10.730;2023-12-20T05:45:23;3.40;99.90
25983;DHT22;13773;48.868;10.730;2023-12-20T05:47:49;3.40;99.90
25983;DHT22;13773;48.868;10.730;2023-12-20T05:50:15;3.30;99.90
25983;DHT22;13773;48.868;10.730;2023-12-20T05:52:40;3.30;99.90
25983;DHT22;13773;48.868;10.730;2023-12-20T05:55:06;3.30;99.90
25983;DHT22;13773;48.868;10.730;2023-12-20T05:57:32;3.30;99.90
25983;DHT22;13773;48.868;10.730;2023-12-20T05:59:58;3.30;99.90
25983;DHT22;13773;48.868;10.730;2023-12-20T06:02:23;3.20;99.90
25983;DHT22;13773;48.868;10.730;2023-12-20T06:04:49;3.30;99.90
25983;DHT22;13773;48.868;10.730;2023-12-20T06:07:15;3.30;99.90
25983;DHT22;13773;48.868;10.730;2023-12-20T06:09:41;3.30;99.90
25983;DHT22;13773;48.868;10.730;2023-12-20T06:12:07;3.30;99.90
25983;DHT22;13773;48.868;10.730;2023-12-20T06:14:33;3.20;99.90
25983;DHT22;13773;48.868;10.730;2023-12-20T06:17:00;3.20;99.90
25983;DHT22;13773;48.868;10.730;2023-12-20T06:19:26;3.20;99.90
25983;DHT22;13773;48.868;10.730;2023-12-20T06:21:52;3.20;99.90
25983;DHT22;13773;48.868;10.730;2023-12-20T06:24:18;3.20;99.90
25983;DHT22;13773;48.868;10.730;2023-12-20T06:26:44;3.40;99.90
25983;DHT22;13773;48.868;10.730;2023-12-20T06:29:10;3.50;99.90
25983;DHT22;13773;48.868;10.730;2023-12-20T06:31:36;3.20;99.90
25983;DHT22;13773;48.868;10.730;2023-12-20T06:34:01;3.20;99.90
25983;DHT22;13773;48.868;10.730;2023-12-20T06:36:27;3.20;99.90
25983;DHT22;13773;48.868;10.730;2023-12-20T06:38:53;3.70;99.90
25983;DHT22;13773;48.868;10.730;2023-12-20T06:41:19;3.60;99.90
25983;DHT22;13773;48.868;10.730;2023-12-20T06:43:44;3.20;99.90
25983;DHT22;13773;48.868;10.730;2023-12-20T06:46:10;3.20;99.90
25983;DHT22;13773;48.868;10.730;2023-12-20T06:48:36;3.20;99.90
25983;DHT22;13773;48.868;10.730;2023-12-20T06:51:02;3.20;99.90
25983;DHT22;13773;48.868;10.730;2023-12-20T06:53:28;3.20;99.90
25983;DHT22;13773;48.868;10.730;2023-12-20T06:55:54;3.20;99.90
25983;DHT22;13773;48.868;10.730;2023-12-20T06:58:21;3.50;99.90
25983;DHT22;13773;48.868;10.730;2023-12-20T07:00:47;3.30;99.90
25983;DHT22;13773;48.868;10.730;2023-12-20T07:03:13;3.20;99.90
25983;DHT22;13773;48.868;10.730;2023-12-20T07:05:38;3.30;99.90
25983;DHT22;13773;48.868;10.730;2023-12-20T07:08:04;3.20;99.90
25983;DHT22;13773;48.868;10.730;2023-12-20T07:10:30;3.20;99.90
25983;DHT22;13773;48.868;10.730;2023-12-20T07:12:56;3.30;99.90
25983;DHT22;13773;48.868;10.730;2023-12-20T07:15:22;3.20;99.90
25983;DHT22;13773;48.868;10.730;2023-12-20T07:17:48;3.20;99.90
25983;DHT22;13773;48.868;10.730;2023-12-20T07:20:14;3.30;99.90
25983;DHT22;13773;48.868;10.730;2023-12-20T07:22:39;3.30;99.90
25983;DHT22;13773;48.868;10.730;2023-12-20T07:25:06;3.30;99.90
25983;DHT22;13773;48.868;10.730;2023-12-20T07:27:32;3.30;99.90
25983;DHT22;13773;48.868;10.730;2023-12-20T07:29:57;3.30;99.90
25983;DHT22;13773;48.868;10.730;2023-12-20T07:32:23;3.30;99.90
25983;DHT22;13773;48.868;10.730;2023-12-20T07:34:49;3.30;99.90
25983;DHT22;13773;48.868;10.730;2023-12-20T07:37:14;3.30;99.90
25983;DHT22;13773;48.868;10.730;2023-12-20T07:39:40;3.80;99.90
25983;DHT22;13773;48.868;10.730;2023-12-20T07:42:07;3.30;99.90
25983;DHT22;13773;48.868;10.730;2023-12-20T07:44:33;3.30;99.90
25983;DHT22;13773;48.868;10.730;2023-12-20T07:46:58;3.70;99.90
25983;DHT22;13773;48.868;10.730;2023-12-20T07:49:24;3.30;99.90
25983;DHT22;13773;48.868;10.730;2023-12-20T07:51:50;3.30;99.90
25983;DHT22;13773;48.868;10.730;2023-12-20T07:54:16;3.30;99.90
25983;DHT22;13773;48.868;10.730;2023-12-20T07:56:41;3.40;99.90
25983;DHT22;13773;48.868;10.730;2023-12-20T07:59:07;3.40;99.90
25983;DHT22;13773;48.868;10.730;2023-12-20T08:01:33;3.90;99.90
25983;DHT22;13773;48.868;10.730;2023-12-20T08:03:58;3.50;99.90
25983;DHT22;13773;48.868;10.730;2023-12-20T08:06:24;3.50;99.90
25983;DHT22;13773;48.868;10.730;2023-12-20T08:08:50;3.60;99.90
25983;DHT22;13773;48.868;10.730;2023-12-20T08:11:15;3.60;99.90
25983;DHT22;13773;48.868;10.730;2023-12-20T08:13:41;3.60;99.90
25983;DHT22;13773;48.868;10.730;2023-12-20T08:16:07;3.70;99.90
25983;DHT22;13773;48.868;10.730;2023-12-20T08:18:32;3.70;99.90
25983;DHT22;13773;48.868;10.730;2023-12-20T08:20:59;3.70;99.90
25983;DHT22;13773;48.868;10.730;2023-12-20T08:23:25;3.70;99.90
25983;DHT22;13773;48.868;10.730;2023-12-20T08:25:51;3.80;99.90
25983;DHT22;13773;48.868;10.730;2023-12-20T08:28:16;3.80;99.90
25983;DHT22;13773;48.868;10.730;2023-12-20T08:30:42;4.10;99.90
25983;DHT22;13773;48.868;10.730;2023-12-20T08:33:08;3.90;99.90
25983;DHT22;13773;48.868;10.730;2023-12-20T08:35:40;4.00;99.90
25983;DHT22;13773;48.868;10.730;2023-12-20T08:38:06;4.00;99.90
25983;DHT22;13773;48.868;10.730;2023-12-20T08:40:32;4.00;99.90
25983;DHT22;13773;48.868;10.730;2023-12-20T08:42:58;4.00;99.90
25983;DHT22;13773;48.868;10.730;2023-12-20T08:45:23;4.00;99.90
25983;DHT22;13773;48.868;10.730;2023-12-20T08:47:50;4.00;99.90
25983;DHT22;13773;48.868;10.730;2023-12-20T08:50:15;4.00;99.90
25983;DHT22;13773;48.868;10.730;2023-12-20T08:52:41;4.10;99.90
25983;DHT22;13773;48.868;10.730;2023-12-20T08:55:08;4.10;99.90
25983;DHT22;13773;48.868;10.730;2023-12-20T08:57:35;4.10;99.90
25983;DHT22;13773;48.868;10.730;2023-12-20T09:00:00;4.20;99.90
25983;DHT22;13773;48.868;10.730;2023-12-20T09:02:26;4.20;99.90
25983;DHT22;13773;48.868;10.730;2023-12-20T09:04:52;4.30;99.90
25983;DHT22;13773;48.868;10.730;2023-12-20T09:07:24;4.30;99.90
25983;DHT22;13773;48.868;10.730;2023-12-20T09:09:51;4.30;99.90
25983;DHT22;13773;48.868;10.730;2023-12-20T09:12:18;4.30;99.90
25983;DHT22;13773;48.868;10.730;2023-12-20T09:14:48;4.30;99.90
25983;DHT22;13773;48.868;10.730;2023-12-20T09:17:15;4.20;99.90
25983;DHT22;13773;48.868;10.730;2023-12-20T09:19:42;4.20;99.90
25983;DHT22;13773;48.868;10.730;2023-12-20T09:22:09;4.20;99.90
25983;DHT22;13773;48.868;10.730;2023-12-20T09:24:35;4.20;99.90
25983;DHT22;13773;48.868;10.730;2023-12-20T09:27:01;4.20;99.90
25983;DHT22;13773;48.868;10.730;2023-12-20T09:29:27;4.20;99.90
25983;DHT22;13773;48.868;10.730;2023-12-20T09:31:52;4.20;99.90
25983;DHT22;13773;48.868;10.730;2023-12-20T09:34:18;4.20;99.90
25983;DHT22;13773;48.868;10.730;2023-12-20T09:36:44;4.20;99.90
25983;DHT22;13773;48.868;10.730;2023-12-20T09:39:21;4.20;99.90
25983;DHT22;13773;48.868;10.730;2023-12-20T09:42:06;4.20;99.90
25983;DHT22;13773;48.868;10.730;2023-12-20T09:44:33;4.20;99.90
25983;DHT22;13773;48.868;10.730;2023-12-20T09:47:05;4.20;99.90
25983;DHT22;13773;48.868;10.730;2023-12-20T09:49:31;4.20;99.90
25983;DHT22;13773;48.868;10.730;2023-12-20T09:51:58;4.10;99.90
25983;DHT22;13773;48.868;10.730;2023-12-20T09:54:25;4.10;99.90
25983;DHT22;13773;48.868;10.730;2023-12-20T09:56:52;4.20;99.90
25983;DHT22;13773;48.868;10.730;2023-12-20T09:59:18;4.20;99.90
25983;DHT22;13773;48.868;10.730;2023-12-20T10:01:44;4.10;99.90
25983;DHT22;13773;48.868;10.730;2023-12-20T10:04:11;4.10;99.90
25983;DHT22;13773;48.868;10.730;2023-12-20T10:06:41;4.20;99.90
25983;DHT22;13773;48.868;10.730;2023-12-20T10:09:09;4.20;99.90
25983;DHT22;13773;48.868;10.730;2023-12-20T10:11:36;4.30;99.90
25983;DHT22;13773;48.868;10.730;2023-12-20T10:14:03;4.30;99.90
25983;DHT22;13773;48.868;10.730;2023-12-20T10:16:29;4.40;99.90
25983;DHT22;13773;48.868;10.730;2023-12-20T10:18:56;4.50;99.90
25983;DHT22;13773;48.868;10.730;2023-12-20T10:21:22;4.60;99.90
25983;DHT22;13773;48.868;10.730;2023-12-20T10:23:49;4.60;99.90
25983;DHT22;13773;48.868;10.730;2023-12-20T10:26:25;4.60;99.90
25983;DHT22;13773;48.868;10.730;2023-12-20T10:28:59;4.60;99.90
25983;DHT22;13773;48.868;10.730;2023-12-20T10:31:35;4.50;99.90
25983;DHT22;13773;48.868;10.730;2023-12-20T10:34:02;4.40;99.90
25983;DHT22;13773;48.868;10.730;2023-12-20T10:36:33;4.30;99.90
25983;DHT22;13773;48.868;10.730;2023-12-20T10:38:59;4.30;99.90
25983;DHT22;13773;48.868;10.730;2023-12-20T10:41:26;4.40;99.90
25983;DHT22;13773;48.868;10.730;2023-12-20T10:44:11;4.50;99.90
25983;DHT22;13773;48.868;10.730;2023-12-20T10:46:39;4.50;99.90
25983;DHT22;13773;48.868;10.730;2023-12-20T10:49:07;4.60;99.90
25983;DHT22;13773;48.868;10.730;2023-12-20T10:51:34;4.70;99.90
25983;DHT22;13773;48.868;10.730;2023-12-20T10:54:00;4.90;99.90
25983;DHT22;13773;48.868;10.730;2023-12-20T10:56:30;5.10;99.90
25983;DHT22;13773;48.868;10.730;2023-12-20T10:58:59;5.10;99.90
25983;DHT22;13773;48.868;10.730;2023-12-20T11:01:28;5.10;99.90
25983;DHT22;13773;48.868;10.730;2023-12-20T11:03:54;5.10;99.90
25983;DHT22;13773;48.868;10.730;2023-12-20T11:06:50;5.20;99.90
25983;DHT22;13773;48.868;10.730;2023-12-20T11:09:26;5.00;99.90
25983;DHT22;13773;48.868;10.730;2023-12-20T11:12:13;4.90;99.90
25983;DHT22;13773;48.868;10.730;2023-12-20T11:14:46;4.70;99.90
25983;DHT22;13773;48.868;10.730;2023-12-20T11:17:13;4.60;99.90
25983;DHT22;13773;48.868;10.730;2023-12-20T11:22:24;4.30;99.90
25983;DHT22;13773;48.868;10.730;2023-12-20T11:24:51;4.30;99.90
25983;DHT22;13773;48.868;10.730;2023-12-20T11:27:18;4.30;99.90
25983;DHT22;13773;48.868;10.730;2023-12-20T11:29:54;4.30;99.90
25983;DHT22;13773;48.868;10.730;2023-12-20T11:34:51;4.30;99.90
25983;DHT22;13773;48.868;10.730;2023-12-20T11:37:19;4.40;99.90
25983;DHT22;13773;48.868;10.730;2023-12-20T11:39:53;4.40;99.90
25983;DHT22;13773;48.868;10.730;2023-12-20T11:42:20;4.40;99.90
25983;DHT22;13773;48.868;10.730;2023-12-20T11:44:46;4.50;99.90
25983;DHT22;13773;48.868;10.730;2023-12-20T11:47:13;4.50;99.90
25983;DHT22;13773;48.868;10.730;2023-12-20T11:49:39;4.60;99.90
25983;DHT22;13773;48.868;10.730;2023-12-20T11:52:05;4.50;99.90
25983;DHT22;13773;48.868;10.730;2023-12-20T11:54:31;4.60;99.90
25983;DHT22;13773;48.868;10.730;2023-12-20T11:56:57;4.60;99.90
25983;DHT22;13773;48.868;10.730;2023-12-20T11:59:23;4.60;99.90
25983;DHT22;13773;48.868;10.730;2023-12-20T12:01:50;4.60;99.90
25983;DHT22;13773;48.868;10.730;2023-12-20T12:04:16;4.60;99.90
25983;DHT22;13773;48.868;10.730;2023-12-20T12:06:43;4.60;99.90
25983;DHT22;13773;48.868;10.730;2023-12-20T12:09:10;4.60;99.90
25983;DHT22;13773;48.868;10.730;2023-12-20T12:11:35;4.60;99.90
25983;DHT22;13773;48.868;10.730;2023-12-20T12:14:01;4.60;99.90
25983;DHT22;13773;48.868;10.730;2023-12-20T12:16:27;4.60;99.90
25983;DHT22;13773;48.868;10.730;2023-12-20T12:18:56;4.60;99.90
25983;DHT22;13773;48.868;10.730;2023-12-20T12:21:23;4.60;99.90
25983;DHT22;13773;48.868;10.730;2023-12-20T12:23:48;4.60;99.90
25983;DHT22;13773;48.868;10.730;2023-12-20T12:26:14;4.50;99.90
25983;DHT22;13773;48.868;10.730;2023-12-20T12:28:41;4.70;99.90
25983;DHT22;13773;48.868;10.730;2023-12-20T12:31:07;4.50;99.90
25983;DHT22;13773;48.868;10.730;2023-12-20T12:33:33;4.40;99.90
25983;DHT22;13773;48.868;10.730;2023-12-20T12:36:00;4.40;99.90
25983;DHT22;13773;48.868;10.730;2023-12-20T12:38:26;4.30;99.90
25983;DHT22;13773;48.868;10.730;2023-12-20T12:40:54;4.40;99.90
25983;DHT22;13773;48.868;10.730;2023-12-20T12:43:20;4.30;99.90
25983;DHT22;13773;48.868;10.730;2023-12-20T12:45:45;4.30;99.90
25983;DHT22;13773;48.868;10.730;2023-12-20T12:48:11;4.30;99.90
25983;DHT22;13773;48.868;10.730;2023-12-20T12:50:37;4.30;99.90
25983;DHT22;13773;48.868;10.730;2023-12-20T12:53:03;4.30;99.90
25983;DHT22;13773;48.868;10.730;2023-12-20T12:55:29;4.30;99.90
25983;DHT22;13773;48.868;10.730;2023-12-20T12:57:55;4.30;99.90
25983;DHT22;13773;48.868;10.730;2023-12-20T13:00:20;4.30;99.90
25983;DHT22;13773;48.868;10.730;2023-12-20T13:02:47;4.30;99.90
25983;DHT22;13773;48.868;10.730;2023-12-20T13:05:12;4.20;99.90
25983;DHT22;13773;48.868;10.730;2023-12-20T13:07:38;4.20;99.90
25983;DHT22;13773;48.868;10.730;2023-12-20T13:10:05;4.20;99.90
25983;DHT22;13773;48.868;10.730;2023-12-20T13:12:31;4.20;99.90
25983;DHT22;13773;48.868;10.730;2023-12-20T13:14:58;4.20;99.90
25983;DHT22;13773;48.868;10.730;2023-12-20T13:17:23;4.30;99.90
25983;DHT22;13773;48.868;10.730;2023-12-20T13:19:49;4.10;99.90
25983;DHT22;13773;48.868;10.730;2023-12-20T13:22:15;4.10;99.90
25983;DHT22;13773;48.868;10.730;2023-12-20T13:24:41;4.20;99.90
25983;DHT22;13773;48.868;10.730;2023-12-20T13:27:10;4.10;99.90
25983;DHT22;13773;48.868;10.730;2023-12-20T13:29:35;4.00;99.90
25983;DHT22;13773;48.868;10.730;2023-12-20T13:32:01;4.00;99.90
25983;DHT22;13773;48.868;10.730;2023-12-20T13:34:29;4.00;99.90
25983;DHT22;13773;48.868;10.730;2023-12-20T13:36:55;4.00;99.90
25983;DHT22;13773;48.868;10.730;2023-12-20T13:39:21;4.00;99.90
25983;DHT22;13773;48.868;10.730;2023-12-20T13:41:47;4.00;99.90
25983;DHT22;13773;48.868;10.730;2023-12-20T13:44:13;4.00;99.90
25983;DHT22;13773;48.868;10.730;2023-12-20T13:46:39;4.00;99.90
25983;DHT22;13773;48.868;10.730;2023-12-20T13:49:05;4.00;99.90
25983;DHT22;13773;48.868;10.730;2023-12-20T13:51:31;3.90;99.90
25983;DHT22;13773;48.868;10.730;2023-12-20T13:53:56;3.90;99.90
25983;DHT22;13773;48.868;10.730;2023-12-20T13:56:23;3.80;99.90
25983;DHT22;13773;48.868;10.730;2023-12-20T13:58:49;3.90;99.90
25983;DHT22;13773;48.868;10.730;2023-12-20T14:01:16;3.90;99.90
25983;DHT22;13773;48.868;10.730;2023-12-20T14:03:41;3.80;99.90
25983;DHT22;13773;48.868;10.730;2023-12-20T14:06:07;3.90;99.90
25983;DHT22;13773;48.868;10.730;2023-12-20T14:08:33;3.90;99.90
25983;DHT22;13773;48.868;10.730;2023-12-20T14:10:59;3.90;99.90
25983;DHT22;13773;48.868;10.730;2023-12-20T14:13:26;3.80;99.90
25983;DHT22;13773;48.868;10.730;2023-12-20T14:15:52;3.80;99.90
25983;DHT22;13773;48.868;10.730;2023-12-20T14:18:19;3.80;99.90
25983;DHT22;13773;48.868;10.730;2023-12-20T14:20:45;3.80;99.90
25983;DHT22;13773;48.868;10.730;2023-12-20T14:23:12;3.70;99.90
25983;DHT22;13773;48.868;10.730;2023-12-20T14:25:41;3.70;99.90
25983;DHT22;13773;48.868;10.730;2023-12-20T14:28:07;3.70;99.90
25983;DHT22;13773;48.868;10.730;2023-12-20T14:30:32;3.70;99.90
25983;DHT22;13773;48.868;10.730;2023-12-20T14:32:59;3.70;99.90
25983;DHT22;13773;48.868;10.730;2023-12-20T14:35:24;3.70;99.90
25983;DHT22;13773;48.868;10.730;2023-12-20T14:37:50;3.60;99.90
25983;DHT22;13773;48.868;10.730;2023-12-20T14:40:16;3.60;99.90
25983;DHT22;13773;48.868;10.730;2023-12-20T14:42:45;3.70;99.90
25983;DHT22;13773;48.868;10.730;2023-12-20T14:45:11;3.60;99.90
25983;DHT22;13773;48.868;10.730;2023-12-20T14:47:38;3.60;99.90
25983;DHT22;13773;48.868;10.730;2023-12-20T14:50:05;3.60;99.90
25983;DHT22;13773;48.868;10.730;2023-12-20T14:52:33;6.20;99.90
25983;DHT22;13773;48.868;10.730;2023-12-20T14:55:00;3.50;99.90
25983;DHT22;13773;48.868;10.730;2023-12-20T14:57:25;3.50;99.90
25983;DHT22;13773;48.868;10.730;2023-12-20T14:59:52;3.80;99.90
25983;DHT22;13773;48.868;10.730;2023-12-20T15:02:17;3.50;99.90
25983;DHT22;13773;48.868;10.730;2023-12-20T15:04:43;3.50;99.90
25983;DHT22;13773;48.868;10.730;2023-12-20T15:07:09;3.40;99.90
25983;DHT22;13773;48.868;10.730;2023-12-20T15:09:34;3.70;99.90
25983;DHT22;13773;48.868;10.730;2023-12-20T15:12:00;3.20;99.90
25983;DHT22;13773;48.868;10.730;2023-12-20T15:14:26;3.20;99.90
25983;DHT22;13773;48.868;10.730;2023-12-20T15:16:53;3.20;99.90
25983;DHT22;13773;48.868;10.730;2023-12-20T15:19:20;3.10;99.90
25983;DHT22;13773;48.868;10.730;2023-12-20T15:21:46;3.10;99.90
25983;DHT22;13773;48.868;10.730;2023-12-20T15:24:12;3.00;99.90
25983;DHT22;13773;48.868;10.730;2023-12-20T15:26:42;3.00;99.90
25983;DHT22;13773;48.868;10.730;2023-12-20T15:29:09;3.00;99.90
25983;DHT22;13773;48.868;10.730;2023-12-20T15:31:37;3.00;99.90